Helix, Oregon
Current Conditions -  °F | °C
As of 7:53 PM on Wednesday 28 Jan 2015 (Local Time) from KPDT Reporting Station
Haze Haze  
Wind Chill: 29°   Ceiling: 200
Heat Index: 35°   Visibility: 1mi
Dew Point: 34°   Wind: 8mph
Humidity: 96%   Direction: 40°NE
Pressure: 30.41"   Gusts: NA
Location:  45.85°N, 118.66°W
Report Text: KPDT 290353Z 04007KT 1SM BR OVC002 02/01 A3041 RMK AO2 SLP303 T00170011
Loading
Personal Weather Stations






























Interactive Weather Map New forecast layout! Learn more

10-Day Weather Forecast

Advertisements
Track Severe Weather on mobile